Time;durP1;ratioP1;P1;durP2;ratioP2;P2;SDS_P1;SDS_P2;PMS_P1;PMS_P2;Temp;Humidity;BMP_temperature;BMP_pressure;BME280_temperature;BME280_humidity;BME280_pressure;Samples;Min_cycle;Max_cycle;Signal;HPM_P1;HPM_P2
2022/01/24 00:01:50;;;;;;;17.88;8.50;;;0.30;99.90;;;;;;5028875;23;20050;-72
2022/01/24 00:04:17;;;;;;;17.77;9.00;;;0.30;99.90;;;;;;5020274;28;20025;-71
2022/01/24 00:06:43;;;;;;;17.65;9.32;;;0.30;99.90;;;;;;5013948;28;20025;-73
2022/01/24 00:09:11;;;;;;;18.10;8.82;;;0.30;99.90;;;;;;5002788;28;20045;-73
2022/01/24 00:11:45;;;;;;;22.77;10.00;;;0.30;99.90;;;;;;5009932;28;20029;-72
2022/01/24 00:26:59;;;;;;;;;;;0.20;99.90;;;;;;4997684;28;20081;-72
2022/01/24 00:29:26;;;;;;;19.42;8.00;;;0.20;99.90;;;;;;5006629;28;19910;-73
2022/01/24 00:31:53;;;;;;;17.08;9.15;;;0.20;99.90;;;;;;5003954;28;20026;-72
2022/01/24 00:34:19;;;;;;;16.55;8.52;;;0.10;99.90;;;;;;5000358;28;20185;-72
2022/01/24 00:36:49;;;;;;;15.68;8.23;;;0.20;99.90;;;;;;5004879;28;20025;-72
2022/01/24 00:39:15;;;;;;;18.95;9.60;;;0.20;99.90;;;;;;5002949;28;20483;-72
2022/01/24 00:46:59;;;;;;;17.73;8.88;;;0.10;99.90;;;;;;5001288;28;20037;-72
2022/01/24 00:54:43;;;;;;;18.65;9.32;;;0.10;99.90;;;;;;5003310;28;20037;-72
2022/01/24 00:57:10;;;;;;;21.65;9.52;;;0.10;99.90;;;;;;5006627;28;20390;-72
2022/01/24 00:59:37;;;;;;;18.48;9.45;;;0.00;99.90;;;;;;5002032;28;20494;-72
2022/01/24 01:02:03;;;;;;;21.20;10.25;;;0.10;99.90;;;;;;5001184;28;20560;-72
2022/01/24 01:04:40;;;;;;;22.25;9.32;;;0.00;99.90;;;;;;5006834;28;20481;-71
2022/01/24 01:07:07;;;;;;;19.40;9.95;;;0.00;99.90;;;;;;5004249;28;20030;-73
2022/01/24 01:18:10;;;;;;;24.52;10.38;;;0.00;99.90;;;;;;5001847;28;20517;-72
2022/01/24 01:20:57;;;;;;;19.25;9.35;;;0.00;99.90;;;;;;4999033;28;20467;-72
2022/01/24 01:23:22;;;;;;;21.08;10.50;;;0.00;99.90;;;;;;5002865;28;20471;-72
2022/01/24 01:25:49;;;;;;;19.60;9.57;;;0.00;99.90;;;;;;5001073;28;20026;-72
2022/01/24 01:28:16;;;;;;;22.77;10.15;;;0.00;99.90;;;;;;5002423;28;20111;-72
2022/01/24 01:30:46;;;;;;;20.27;9.60;;;0.00;99.90;;;;;;4999477;28;20026;-72
2022/01/24 01:38:37;;;;;;;16.58;8.77;;;0.00;99.90;;;;;;5003394;28;20436;-72
2022/01/24 01:57:32;;;;;;;16.92;9.05;;;0.00;99.90;;;;;;4945185;28;20035;-72
2022/01/24 01:59:58;;;;;;;21.48;9.80;;;-0.10;99.90;;;;;;4978281;28;20037;-72
2022/01/24 02:02:24;;;;;;;17.02;8.90;;;-0.10;99.90;;;;;;5010839;28;20037;-72
2022/01/24 02:04:49;;;;;;;20.60;9.45;;;0.00;99.90;;;;;;5012032;28;20030;-72
2022/01/24 02:07:17;;;;;;;21.88;9.57;;;0.00;99.90;;;;;;5005666;28;20076;-72
2022/01/24 02:09:45;;;;;;;21.20;10.13;;;0.00;99.90;;;;;;5006514;28;20017;-72
2022/01/24 02:12:12;;;;;;;21.25;10.15;;;0.00;99.90;;;;;;5008371;28;20055;-72
2022/01/24 02:14:44;;;;;;;19.13;9.85;;;0.00;99.90;;;;;;5009917;28;20030;-72
2022/01/24 02:17:16;;;;;;;20.15;10.38;;;0.10;99.90;;;;;;5006746;28;20184;-73
2022/01/24 02:23:15;;;;;;;18.05;9.73;;;0.10;99.90;;;;;;5008460;28;20056;-72
2022/01/24 02:25:11;;;;;;;20.80;9.50;;;0.10;99.90;;;;;;4991832;28;20038;-72
2022/01/24 02:27:47;;;;;;;20.23;9.30;;;0.10;99.90;;;;;;5004661;28;20018;-71
2022/01/24 02:30:38;;;;;;;18.65;9.20;;;0.10;99.90;;;;;;5010114;28;20029;-72
2022/01/24 02:32:58;;;;;;;18.27;8.70;;;0.10;99.90;;;;;;5010635;28;20368;-72
2022/01/24 02:35:24;;;;;;;21.52;10.43;;;0.10;99.90;;;;;;5010621;28;20087;-72
2022/01/24 02:37:50;;;;;;;20.73;9.90;;;0.10;99.90;;;;;;5005699;28;20030;-72
2022/01/24 02:40:19;;;;;;;17.90;9.40;;;0.10;99.90;;;;;;5005762;28;20029;-72
2022/01/24 02:48:24;;;;;;;18.52;9.38;;;0.00;99.90;;;;;;5003644;28;20029;-72
2022/01/24 02:53:35;;;;;;;17.73;8.80;;;-0.10;99.90;;;;;;5006160;28;20122;-72
2022/01/24 02:56:03;;;;;;;19.50;10.35;;;0.00;99.90;;;;;;5005089;28;20104;-72
2022/01/24 02:58:29;;;;;;;21.65;11.18;;;-0.10;99.90;;;;;;5004899;28;20026;-72
2022/01/24 03:00:56;;;;;;;21.13;11.20;;;0.00;99.90;;;;;;5009459;28;20018;-73
2022/01/24 03:03:22;;;;;;;22.17;10.40;;;-0.10;99.90;;;;;;5002543;28;20450;-72
2022/01/24 03:05:48;;;;;;;18.63;9.77;;;-0.10;99.90;;;;;;5004460;28;20030;-72
2022/01/24 03:08:14;;;;;;;19.90;9.48;;;-0.10;99.90;;;;;;5009835;28;20093;-72
2022/01/24 03:10:46;;;;;;;21.67;11.98;;;-0.20;99.90;;;;;;5001721;28;20026;-71
2022/01/24 03:15:54;;;;;;;19.17;9.57;;;-0.30;99.90;;;;;;5005200;28;20108;-71
2022/01/24 03:18:20;;;;;;;19.63;10.40;;;-0.40;99.90;;;;;;5000880;28;20033;-72
2022/01/24 03:20:46;;;;;;;24.02;10.65;;;-0.40;99.90;;;;;;5000481;28;20092;-72
2022/01/24 03:23:13;;;;;;;18.70;9.65;;;-0.40;99.90;;;;;;5003700;28;20402;-71
2022/01/24 03:25:40;;;;;;;17.85;9.25;;;-0.50;99.90;;;;;;5003044;28;20018;-72
2022/01/24 03:28:06;;;;;;;18.65;9.75;;;-0.50;99.90;;;;;;5019440;28;20026;-72
2022/01/24 03:30:32;;;;;;;20.42;9.68;;;-0.50;99.90;;;;;;5004392;28;20065;-72
2022/01/24 03:32:59;;;;;;;20.33;10.73;;;-0.50;99.90;;;;;;5000469;28;20022;-72
2022/01/24 03:35:25;;;;;;;20.73;10.55;;;-0.50;99.90;;;;;;4998721;28;20045;-72
2022/01/24 03:37:51;;;;;;;18.58;10.75;;;-0.50;99.90;;;;;;5003719;28;20038;-71
2022/01/24 03:40:16;;;;;;;22.17;10.45;;;-0.50;99.90;;;;;;5000630;28;20037;-72
2022/01/24 03:42:42;;;;;;;21.25;10.23;;;-0.50;99.90;;;;;;5005482;28;20391;-72
2022/01/24 03:45:10;;;;;;;17.25;8.85;;;-0.60;99.90;;;;;;5003113;28;20022;-72
2022/01/24 03:50:04;;;;;;;20.00;10.15;;;-0.60;99.90;;;;;;5002280;28;20564;-72
2022/01/24 03:52:30;;;;;;;20.83;10.15;;;-0.70;99.90;;;;;;5002529;28;20030;-72
2022/01/24 03:54:57;;;;;;;18.25;9.68;;;-0.70;99.90;;;;;;5000932;28;20430;-71
2022/01/24 03:57:24;;;;;;;20.15;9.95;;;-0.70;99.90;;;;;;5004559;28;20029;-72
2022/01/24 03:59:50;;;;;;;21.05;10.93;;;-0.70;99.90;;;;;;5008624;28;20037;-72
2022/01/24 04:02:17;;;;;;;16.95;9.25;;;-0.70;99.90;;;;;;5003886;28;20365;-73
2022/01/24 04:04:43;;;;;;;22.38;9.93;;;-0.70;99.90;;;;;;5001029;28;20014;-73
2022/01/24 04:07:09;;;;;;;19.58;9.38;;;-0.70;99.90;;;;;;5002667;28;20479;-72
2022/01/24 04:09:36;;;;;;;19.25;9.43;;;-0.80;99.90;;;;;;5003298;28;20425;-72
2022/01/24 04:12:03;;;;;;;21.05;10.50;;;-0.80;99.90;;;;;;4999369;28;20037;-71
2022/01/24 04:14:37;;;;;;;24.42;12.50;;;-0.80;99.90;;;;;;5008477;28;20014;-72
2022/01/24 04:22:12;;;;;;;24.13;11.68;;;-0.70;99.90;;;;;;5001810;28;20031;-71
2022/01/24 04:24:38;;;;;;;24.90;12.02;;;-0.70;99.90;;;;;;5003118;28;20030;-71
2022/01/24 04:27:04;;;;;;;29.23;13.35;;;-0.70;99.90;;;;;;5003476;28;20051;-71
2022/01/24 04:29:30;;;;;;;25.50;11.95;;;-0.70;99.90;;;;;;5006231;28;20532;-71
2022/01/24 04:31:56;;;;;;;27.00;12.35;;;-0.70;99.90;;;;;;5007796;28;20030;-71
2022/01/24 04:34:22;;;;;;;21.40;11.13;;;-0.70;99.90;;;;;;5003968;28;20418;-71
2022/01/24 04:36:48;;;;;;;19.67;10.63;;;-0.80;99.90;;;;;;5003920;28;20029;-71
2022/01/24 04:39:15;;;;;;;22.35;10.77;;;-0.80;99.90;;;;;;5002307;28;20034;-71
2022/01/24 04:41:45;;;;;;;24.60;11.25;;;-0.80;99.90;;;;;;5006674;28;20030;-71
2022/01/24 04:44:19;;;;;;;22.38;11.10;;;-0.80;99.90;;;;;;5002844;28;20060;-72
2022/01/24 04:47:00;;;;;;;23.65;11.00;;;-0.90;99.90;;;;;;5004491;28;20053;-73
2022/01/24 04:52:34;;;;;;;23.45;10.65;;;-0.90;99.90;;;;;;5007447;28;20395;-73
2022/01/24 04:55:00;;;;;;;21.48;10.55;;;-1.00;99.90;;;;;;5000489;28;20370;-70
2022/01/24 04:57:27;;;;;;;18.83;10.40;;;-1.00;99.90;;;;;;5006118;28;20030;-72
2022/01/24 04:59:56;;;;;;;21.45;10.50;;;-0.90;99.90;;;;;;5003329;28;20526;-72
2022/01/24 05:02:23;;;;;;;19.95;9.80;;;-0.90;99.90;;;;;;5006431;28;20049;-71
2022/01/24 05:04:49;;;;;;;24.92;11.07;;;-1.00;99.90;;;;;;5004228;28;20022;-71
2022/01/24 05:07:15;;;;;;;22.30;10.82;;;-1.00;99.90;;;;;;5004196;28;20033;-70
2022/01/24 05:09:46;;;;;;;20.80;10.02;;;-1.00;99.90;;;;;;5006633;28;20030;-73
2022/01/24 05:25:40;;;;;;;19.77;10.13;;;-1.00;99.90;;;;;;5008807;28;20560;-73
2022/01/24 05:28:06;;;;;;;22.13;11.07;;;-1.00;99.90;;;;;;5008354;28;20038;-76
2022/01/24 05:30:31;;;;;;;22.70;10.75;;;-1.00;99.90;;;;;;5007867;28;20108;-70
2022/01/24 05:32:57;;;;;;;19.65;9.98;;;-0.90;99.90;;;;;;5008687;28;20038;-71
2022/01/24 05:35:23;;;;;;;21.80;11.48;;;-0.90;99.90;;;;;;4999961;28;20030;-65
2022/01/24 05:37:48;;;;;;;20.85;10.77;;;-0.80;99.90;;;;;;5008288;28;20375;-65
2022/01/24 05:40:14;;;;;;;21.00;11.48;;;-0.70;99.90;;;;;;5004945;28;20033;-64
2022/01/24 05:42:40;;;;;;;20.15;10.60;;;-0.60;99.90;;;;;;5001725;28;20483;-63
2022/01/24 05:45:06;;;;;;;17.73;9.43;;;-0.50;99.90;;;;;;5006137;28;20038;-65
2022/01/24 05:47:32;;;;;;;19.45;10.80;;;-0.50;99.90;;;;;;5004447;28;20065;-65
2022/01/24 05:49:58;;;;;;;18.10;9.95;;;-0.40;99.90;;;;;;5013746;28;20382;-77
2022/01/24 05:52:24;;;;;;;20.55;10.40;;;-0.40;99.90;;;;;;5012833;28;20048;-77
2022/01/24 05:54:50;;;;;;;20.45;9.65;;;-0.50;99.90;;;;;;5026571;28;20037;-79
2022/01/24 05:57:15;;;;;;;22.83;10.20;;;-0.50;99.90;;;;;;5030373;28;20351;-79
2022/01/24 05:59:41;;;;;;;16.83;9.35;;;-0.60;99.90;;;;;;5030243;28;20072;-78
2022/01/24 06:02:07;;;;;;;17.98;9.00;;;-0.80;99.90;;;;;;5029056;28;20057;-77
2022/01/24 06:04:33;;;;;;;20.63;9.77;;;-0.80;99.90;;;;;;5025649;28;20394;-78
2022/01/24 06:06:59;;;;;;;19.42;9.95;;;-0.90;99.90;;;;;;5027095;28;20067;-77
2022/01/24 06:09:24;;;;;;;20.23;9.70;;;-1.00;99.90;;;;;;5030932;28;20021;-76
2022/01/24 06:11:51;;;;;;;23.27;11.45;;;-1.00;99.90;;;;;;5029018;28;20246;-77
2022/01/24 06:14:17;;;;;;;17.95;9.52;;;-1.00;99.90;;;;;;5028192;28;20029;-75
2022/01/24 06:16:43;;;;;;;24.70;12.68;;;-1.00;99.90;;;;;;5031023;28;20033;-76
2022/01/24 06:19:09;;;;;;;22.92;10.70;;;-1.00;99.90;;;;;;5012873;28;20062;-77
2022/01/24 06:21:34;;;;;;;22.55;11.15;;;-1.00;99.90;;;;;;5015127;28;20033;-78
2022/01/24 06:24:00;;;;;;;21.65;11.00;;;-1.00;99.90;;;;;;5027568;28;20036;-78
2022/01/24 06:26:26;;;;;;;19.73;10.15;;;-1.00;99.90;;;;;;5013300;28;20049;-76
2022/01/24 06:28:51;;;;;;;20.85;10.15;;;-0.90;99.90;;;;;;5014025;28;20025;-77
2022/01/24 06:31:19;;;;;;;24.83;12.15;;;-0.90;99.90;;;;;;5036739;28;20033;-77
2022/01/24 06:33:44;;;;;;;22.58;11.00;;;-0.80;99.90;;;;;;5033419;28;20033;-78
2022/01/24 06:36:10;;;;;;;21.85;10.77;;;-0.70;99.90;;;;;;5024792;28;20505;-75
2022/01/24 06:38:36;;;;;;;20.60;10.80;;;-0.70;99.90;;;;;;5030346;28;20033;-76
2022/01/24 06:41:01;;;;;;;19.13;10.13;;;-0.70;99.90;;;;;;5027010;28;20051;-75
2022/01/24 06:43:27;;;;;;;24.70;11.77;;;-0.70;99.90;;;;;;5031080;28;20108;-75
2022/01/24 06:45:53;;;;;;;20.17;9.98;;;-0.60;99.90;;;;;;5029086;28;20021;-75
2022/01/24 06:48:19;;;;;;;22.63;11.48;;;-0.60;99.90;;;;;;5021560;28;20025;-74
2022/01/24 06:50:45;;;;;;;22.67;11.50;;;-0.50;99.90;;;;;;5014456;28;20056;-75
2022/01/24 06:53:10;;;;;;;19.70;10.40;;;-0.50;99.90;;;;;;5013855;28;20029;-76
2022/01/24 06:55:36;;;;;;;20.40;11.20;;;-0.40;99.90;;;;;;5016462;28;20040;-76
2022/01/24 06:58:02;;;;;;;23.13;11.23;;;-0.40;99.90;;;;;;5012069;28;20029;-77
2022/01/24 07:00:30;;;;;;;22.73;11.73;;;-0.30;99.90;;;;;;5010934;28;20478;-77
2022/01/24 07:02:57;;;;;;;20.92;11.05;;;-0.30;99.90;;;;;;5007666;28;20021;-79
2022/01/24 07:05:24;;;;;;;23.73;11.23;;;-0.30;99.90;;;;;;5028997;28;20033;-76
2022/01/24 07:07:50;;;;;;;22.33;11.45;;;-0.20;99.90;;;;;;5021046;28;20371;-75
2022/01/24 07:10:15;;;;;;;19.95;10.55;;;-0.20;99.90;;;;;;5015191;28;20080;-73
2022/01/24 07:12:41;;;;;;;24.70;11.93;;;-0.10;99.90;;;;;;5003011;28;20053;-74
2022/01/24 07:15:11;;;;;;;23.63;12.20;;;-0.10;99.90;;;;;;5013182;28;20108;-74
2022/01/24 07:20:22;;;;;;;22.05;11.52;;;0.10;99.90;;;;;;5023765;28;20033;-76
2022/01/24 07:22:48;;;;;;;20.17;10.70;;;0.10;99.90;;;;;;5010695;28;20034;-76
2022/01/24 07:25:14;;;;;;;21.77;11.20;;;0.10;99.90;;;;;;5029433;28;20030;-77
2022/01/24 07:27:39;;;;;;;25.35;12.15;;;0.20;99.90;;;;;;5011351;28;20030;-76
2022/01/24 07:30:05;;;;;;;24.00;12.35;;;0.20;99.90;;;;;;5031753;28;20087;-77
2022/01/24 07:32:31;;;;;;;22.95;11.15;;;0.30;99.90;;;;;;5025672;28;20033;-74
2022/01/24 07:34:58;;;;;;;22.63;11.52;;;0.30;99.90;;;;;;5026922;28;20390;-76
2022/01/24 07:37:25;;;;;;;24.83;11.52;;;0.30;99.90;;;;;;5028050;28;20021;-77
2022/01/24 07:39:52;;;;;;;20.60;11.63;;;0.40;99.90;;;;;;5009789;28;20061;-75
2022/01/24 07:42:28;;;;;;;28.13;13.35;;;0.40;99.90;;;;;;5022715;28;20017;-76
2022/01/24 07:44:55;;;;;;;23.50;12.70;;;0.40;99.90;;;;;;5003165;28;20071;-76
2022/01/24 07:47:20;;;;;;;23.60;12.65;;;0.50;99.90;;;;;;5014285;28;20030;-76
2022/01/24 07:49:46;;;;;;;23.13;12.93;;;0.50;99.90;;;;;;5024938;28;20087;-77
2022/01/24 07:52:12;;;;;;;23.05;11.95;;;0.50;99.90;;;;;;5020032;28;20025;-74
2022/01/24 07:54:37;;;;;;;22.17;11.68;;;0.50;99.90;;;;;;5027627;28;20029;-74
2022/01/24 07:57:03;;;;;;;19.13;10.85;;;0.50;99.90;;;;;;5028334;28;20421;-74
2022/01/24 07:59:29;;;;;;;24.67;11.63;;;0.60;99.90;;;;;;5023337;28;20068;-74
2022/01/24 08:01:55;;;;;;;32.00;15.25;;;0.50;99.90;;;;;;5028103;28;20383;-73
2022/01/24 08:04:20;;;;;;;43.70;17.40;;;0.60;99.90;;;;;;5031886;28;20017;-74
2022/01/24 08:06:47;;;;;;;31.58;14.48;;;0.60;99.90;;;;;;5026524;28;20033;-73
2022/01/24 08:09:14;;;;;;;25.20;11.90;;;0.60;99.90;;;;;;5027340;28;20079;-74
2022/01/24 08:11:39;;;;;;;22.42;12.63;;;0.50;99.90;;;;;;5030025;28;20041;-74
2022/01/24 08:14:07;;;;;;;21.27;13.77;;;0.50;99.90;;;;;;5011971;28;20478;-74
2022/01/24 08:16:34;;;;;;;25.40;13.98;;;0.50;99.90;;;;;;5027676;28;20029;-73
2022/01/24 08:18:59;;;;;;;21.33;12.45;;;0.40;99.90;;;;;;5024187;28;20445;-74
2022/01/24 08:21:25;;;;;;;20.92;11.70;;;0.40;99.90;;;;;;5020876;28;20281;-74
2022/01/24 08:23:51;;;;;;;23.23;11.52;;;0.40;99.90;;;;;;5018567;28;20021;-74
2022/01/24 08:26:18;;;;;;;21.88;12.38;;;0.40;99.90;;;;;;5028229;28;20132;-74
2022/01/24 08:28:44;;;;;;;20.08;11.25;;;0.50;99.90;;;;;;5027872;28;20057;-74
2022/01/24 08:31:10;;;;;;;23.85;12.02;;;0.50;99.90;;;;;;5016737;28;20893;-74
2022/01/24 08:33:35;;;;;;;23.17;11.02;;;0.50;99.90;;;;;;5008972;28;20403;-74
2022/01/24 08:36:02;;;;;;;28.60;13.05;;;0.60;99.90;;;;;;5019724;28;20029;-74
2022/01/24 08:38:29;;;;;;;24.45;12.68;;;0.60;99.90;;;;;;5009717;28;20034;-73
2022/01/24 08:40:59;;;;;;;22.63;12.95;;;0.60;99.90;;;;;;5023854;28;20030;-75
2022/01/24 08:43:50;;;;;;;25.15;13.07;;;0.70;99.90;;;;;;5022491;28;20037;-73
2022/01/24 08:46:17;;;;;;;24.00;13.45;;;0.70;99.90;;;;;;5021112;28;20441;-74
2022/01/24 08:48:45;;;;;;;23.15;13.27;;;0.80;99.90;;;;;;5026816;28;20056;-74
2022/01/24 08:51:11;;;;;;;26.27;12.57;;;0.80;99.90;;;;;;5016796;28;20103;-73
2022/01/24 08:53:37;;;;;;;27.83;13.45;;;0.80;99.90;;;;;;5016169;28;20029;-75
2022/01/24 08:56:04;;;;;;;26.15;13.23;;;0.90;99.90;;;;;;5029103;28;20033;-74
2022/01/24 08:58:31;;;;;;;30.20;13.50;;;1.00;99.90;;;;;;5022066;28;20497;-75
2022/01/24 09:00:57;;;;;;;28.80;14.25;;;1.00;99.90;;;;;;5027399;28;20075;-75
2022/01/24 09:03:25;;;;;;;25.30;14.23;;;1.10;99.90;;;;;;5026425;28;20065;-76
2022/01/24 09:05:53;;;;;;;29.88;14.05;;;1.10;99.90;;;;;;5010357;28;20033;-74
2022/01/24 09:08:19;;;;;;;28.50;13.73;;;1.20;99.90;;;;;;5020484;28;20029;-74
2022/01/24 09:10:47;;;;;;;31.30;15.38;;;1.20;99.90;;;;;;5024102;28;20033;-74
2022/01/24 09:13:13;;;;;;;28.95;14.40;;;1.30;99.90;;;;;;5027615;28;20032;-76
2022/01/24 09:15:38;;;;;;;33.63;16.10;;;1.40;99.90;;;;;;5022600;28;20394;-75
2022/01/24 09:18:04;;;;;;;28.20;14.75;;;1.40;99.90;;;;;;5016035;28;20070;-75
2022/01/24 09:20:30;;;;;;;32.22;17.80;;;1.50;99.90;;;;;;5029740;28;20025;-74
2022/01/24 09:22:56;;;;;;;33.65;16.92;;;1.60;99.90;;;;;;5029554;28;20048;-76
2022/01/24 09:25:22;;;;;;;38.60;17.73;;;1.70;99.90;;;;;;5029171;28;20108;-74
2022/01/24 09:27:48;;;;;;;33.85;17.73;;;1.70;99.90;;;;;;5025612;28;20520;-73
2022/01/24 09:30:19;;;;;;;38.70;19.10;;;1.80;99.90;;;;;;5014157;28;20029;-74
2022/01/24 09:32:45;;;;;;;33.65;16.35;;;1.90;99.90;;;;;;5029458;28;20053;-74
2022/01/24 09:35:12;;;;;;;38.95;17.50;;;2.00;99.90;;;;;;5012358;28;20059;-73
2022/01/24 09:37:39;;;;;;;30.83;14.73;;;2.00;99.90;;;;;;5026357;28;20540;-74
2022/01/24 09:40:05;;;;;;;26.95;12.68;;;2.10;99.90;;;;;;5029502;28;20055;-76
2022/01/24 09:42:31;;;;;;;25.42;13.45;;;2.10;99.90;;;;;;5007319;28;20032;-77
2022/01/24 09:44:57;;;;;;;25.13;13.13;;;2.20;99.90;;;;;;5026617;28;20449;-76
2022/01/24 09:47:23;;;;;;;25.35;12.52;;;2.30;99.90;;;;;;5030079;28;20064;-74
2022/01/24 09:49:50;;;;;;;21.27;11.75;;;2.40;99.90;;;;;;5013603;28;20394;-74
2022/01/24 09:52:17;;;;;;;20.98;11.00;;;2.40;99.90;;;;;;5026413;28;20025;-75
2022/01/24 09:54:43;;;;;;;20.60;11.85;;;2.50;99.90;;;;;;5027771;28;20112;-75
2022/01/24 09:57:08;;;;;;;20.10;10.48;;;2.60;99.90;;;;;;5026461;28;20140;-74
2022/01/24 09:59:34;;;;;;;18.67;9.73;;;2.60;99.90;;;;;;5021348;28;20368;-75
2022/01/24 10:02:01;;;;;;;16.13;9.10;;;2.70;99.90;;;;;;5028513;28;20080;-76
2022/01/24 10:04:27;;;;;;;17.30;9.25;;;2.80;99.90;;;;;;5026976;28;20478;-76
2022/01/24 10:07:02;;;;;;;19.27;9.30;;;2.90;99.90;;;;;;5030803;28;20030;-76
2022/01/24 10:09:35;;;;;;;14.15;8.80;;;3.00;99.90;;;;;;5030302;28;20466;-76
2022/01/24 10:12:08;;;;;;;16.63;9.27;;;3.00;99.90;;;;;;5006289;28;20080;-74
2022/01/24 10:17:30;;;;;;;14.95;8.05;;;3.20;99.90;;;;;;5028624;28;20072;-74
2022/01/24 10:19:57;;;;;;;16.40;9.07;;;3.20;99.90;;;;;;5010003;28;20072;-75
2022/01/24 10:22:24;;;;;;;15.60;8.63;;;3.30;99.90;;;;;;5028136;28;20048;-73
2022/01/24 10:24:54;;;;;;;17.15;9.82;;;3.30;99.90;;;;;;5012087;28;20163;-75
2022/01/24 10:27:28;;;;;;;14.27;8.00;;;3.30;99.90;;;;;;5010315;28;20032;-75
2022/01/24 10:30:07;;;;;;;15.25;8.63;;;3.40;99.90;;;;;;5031241;28;20486;-74
2022/01/24 10:32:34;;;;;;;14.73;8.82;;;3.40;99.90;;;;;;5027116;28;20116;-73
2022/01/24 10:35:20;;;;;;;17.88;9.98;;;3.50;99.90;;;;;;5030467;28;20030;-72
2022/01/24 10:37:51;;;;;;;16.70;9.82;;;3.50;99.90;;;;;;5026500;28;20064;-74
2022/01/24 10:40:31;;;;;;;15.35;9.10;;;3.60;99.90;;;;;;5027173;28;20021;-73
2022/01/24 10:43:24;;;;;;;15.50;9.57;;;3.60;99.90;;;;;;5026987;28;20021;-75
2022/01/24 10:45:51;;;;;;;14.30;8.45;;;3.60;99.90;;;;;;5024957;28;20103;-74
2022/01/24 10:48:30;;;;;;;16.95;9.27;;;3.60;99.90;;;;;;5026682;28;20466;-74
2022/01/24 10:51:15;;;;;;;15.38;9.02;;;3.70;99.90;;;;;;5030158;28;20029;-74
2022/01/24 10:53:57;;;;;;;14.27;8.43;;;3.70;99.90;;;;;;5024563;28;20030;-74
2022/01/24 10:56:28;;;;;;;13.60;8.63;;;3.70;99.90;;;;;;5025879;28;20041;-75
2022/01/24 10:59:18;;;;;;;15.38;8.50;;;3.80;99.90;;;;;;5020866;28;20054;-75
2022/01/24 11:01:49;;;;;;;16.08;8.43;;;3.80;99.90;;;;;;5019548;28;20485;-75
2022/01/24 11:04:16;;;;;;;16.73;9.88;;;3.80;99.90;;;;;;5008674;28;20057;-75
2022/01/24 11:06:48;;;;;;;16.20;8.65;;;3.90;99.90;;;;;;5024464;28;20034;-74
2022/01/24 11:09:22;;;;;;;16.88;8.35;;;3.90;99.90;;;;;;5021506;28;20052;-75
2022/01/24 11:12:11;;;;;;;15.68;7.50;;;3.90;99.90;;;;;;5019302;28;20034;-75
2022/01/24 11:14:44;;;;;;;11.88;6.53;;;4.00;99.90;;;;;;5009873;28;20029;-75
2022/01/24 11:17:13;;;;;;;13.88;7.13;;;4.10;99.90;;;;;;5025565;28;20029;-75
2022/01/24 11:19:44;;;;;;;12.10;6.50;;;4.20;99.90;;;;;;5008454;28;26882;-74
2022/01/24 11:22:25;;;;;;;7.93;4.88;;;4.20;99.90;;;;;;5023256;28;20052;-75
2022/01/24 11:24:57;;;;;;;8.45;4.20;;;4.30;99.90;;;;;;5029488;28;20025;-74
2022/01/24 11:27:24;;;;;;;8.23;4.80;;;4.30;99.90;;;;;;5026530;28;20045;-76
2022/01/24 11:29:52;;;;;;;11.48;6.75;;;4.40;99.90;;;;;;5015258;28;20034;-73
2022/01/24 11:32:24;;;;;;;13.38;8.25;;;4.40;99.90;;;;;;5027624;28;20534;-75
2022/01/24 11:34:51;;;;;;;13.27;8.55;;;4.40;99.90;;;;;;5025083;28;20040;-74
2022/01/24 11:37:39;;;;;;;13.98;7.65;;;4.50;99.90;;;;;;5009405;28;20251;-73
2022/01/24 11:40:17;;;;;;;15.23;8.23;;;4.60;99.90;;;;;;5022266;28;20498;-74
2022/01/24 11:42:46;;;;;;;14.85;8.23;;;4.70;99.90;;;;;;5027098;28;20026;-73
2022/01/24 11:45:16;;;;;;;13.15;7.70;;;4.70;99.90;;;;;;5025516;28;20095;-73
2022/01/24 11:47:45;;;;;;;11.07;6.70;;;4.60;99.90;;;;;;5021709;28;20018;-73
2022/01/24 11:50:40;;;;;;;11.43;7.10;;;4.70;99.90;;;;;;5025410;28;20058;-74
2022/01/24 11:53:28;;;;;;;13.07;7.32;;;4.70;99.90;;;;;;4996354;28;20033;-74
2022/01/24 11:55:55;;;;;;;9.38;5.82;;;4.80;99.90;;;;;;5027684;28;20057;-74
2022/01/24 11:58:32;;;;;;;10.70;6.40;;;4.80;99.90;;;;;;5026308;28;20025;-74
2022/01/24 12:01:03;;;;;;;8.43;4.43;;;4.80;99.90;;;;;;5026105;28;20033;-75
2022/01/24 12:03:30;;;;;;;6.43;4.07;;;4.80;99.90;;;;;;5022171;28;20031;-74
2022/01/24 12:05:58;;;;;;;6.57;3.88;;;4.90;99.90;;;;;;5025688;28;20492;-74
2022/01/24 12:08:31;;;;;;;8.02;5.43;;;4.90;99.90;;;;;;5022209;28;20033;-74
2022/01/24 12:11:19;;;;;;;5.50;3.72;;;4.90;99.90;;;;;;5027682;28;20548;-75
2022/01/24 12:13:53;;;;;;;9.68;4.55;;;4.90;99.90;;;;;;5010042;28;20030;-73
2022/01/24 12:16:18;;;;;;;9.63;4.22;;;5.00;99.90;;;;;;5026936;28;20033;-73
2022/01/24 12:18:47;;;;;;;6.65;3.35;;;5.10;99.90;;;;;;5023586;28;20045;-73
2022/01/24 12:21:16;;;;;;;7.75;4.25;;;5.20;99.90;;;;;;5030435;28;20118;-73
2022/01/24 12:23:51;;;;;;;8.77;4.43;;;5.20;99.90;;;;;;5011874;28;20108;-73
2022/01/24 12:26:16;;;;;;;5.82;3.80;;;5.10;99.90;;;;;;5019287;28;20032;-73
2022/01/24 12:28:42;;;;;;;7.65;4.18;;;5.20;99.90;;;;;;5025501;28;20038;-73
2022/01/24 12:31:21;;;;;;;10.35;4.53;;;5.10;99.90;;;;;;5014703;28;20036;-73
2022/01/24 12:34:09;;;;;;;5.40;3.60;;;5.10;99.90;;;;;;5018617;28;20040;-75
2022/01/24 12:36:48;;;;;;;6.57;4.47;;;5.10;99.90;;;;;;5024231;28;20025;-75
2022/01/24 12:39:19;;;;;;;7.88;4.10;;;5.10;99.90;;;;;;5023505;28;20021;-73
2022/01/24 12:41:59;;;;;;;6.70;3.85;;;5.10;99.90;;;;;;5021617;28;20026;-74
2022/01/24 12:47:14;;;;;;;7.72;4.47;;;5.10;99.90;;;;;;5026553;28;20045;-74
2022/01/24 12:49:41;;;;;;;8.13;3.95;;;5.10;99.90;;;;;;5024143;28;20076;-75
2022/01/24 12:52:12;;;;;;;8.48;4.97;;;5.10;99.90;;;;;;5021645;28;20394;-75
2022/01/24 12:54:43;;;;;;;7.30;4.57;;;5.10;99.90;;;;;;5026402;28;20147;-74
2022/01/24 12:57:12;;;;;;;7.35;3.90;;;5.10;99.90;;;;;;5022596;28;20108;-75
2022/01/24 12:59:38;;;;;;;7.38;4.00;;;5.10;99.90;;;;;;5022946;28;20410;-74
2022/01/24 13:02:06;;;;;;;6.32;4.00;;;5.20;99.90;;;;;;5022689;28;20044;-72
2022/01/24 13:04:37;;;;;;;8.05;4.10;;;5.30;99.90;;;;;;5002219;28;20029;-75
2022/01/24 13:07:04;;;;;;;7.75;4.40;;;5.20;99.90;;;;;;5019089;28;20045;-75
2022/01/24 13:09:30;;;;;;;9.48;5.30;;;5.30;99.90;;;;;;5019908;28;20406;-75
2022/01/24 13:12:04;;;;;;;8.38;4.75;;;5.30;99.90;;;;;;5026595;28;20143;-74
2022/01/24 13:14:57;;;;;;;8.23;4.97;;;5.30;99.90;;;;;;5009163;28;20132;-75
2022/01/24 13:23:05;;;;;;;8.80;4.88;;;5.50;99.90;;;;;;5024630;28;20028;-75
2022/01/24 13:25:32;;;;;;;9.73;4.82;;;5.60;99.90;;;;;;5021937;28;20037;-73
2022/01/24 13:28:08;;;;;;;10.98;5.03;;;5.60;99.90;;;;;;5026629;28;20559;-76
2022/01/24 13:30:42;;;;;;;11.75;5.30;;;5.60;99.90;;;;;;5024576;28;20018;-73
2022/01/24 13:33:09;;;;;;;;;;;5.60;99.90;;;;;;5023689;28;20031;-73
2022/01/24 13:35:41;;;;;;;11.70;4.85;;;5.60;99.90;;;;;;5026782;28;19917;-73
2022/01/24 13:38:11;;;;;;;10.43;4.97;;;5.60;99.90;;;;;;5029308;28;20108;-73
2022/01/24 13:43:39;;;;;;;9.00;4.55;;;5.60;99.90;;;;;;5031364;28;20033;-76
2022/01/24 13:46:25;;;;;;;9.20;4.82;;;5.70;99.90;;;;;;5013424;28;20053;-75
2022/01/24 13:48:57;;;;;;;10.73;5.28;;;5.60;99.90;;;;;;5008982;28;20036;-73
2022/01/24 13:51:25;;;;;;;10.88;5.15;;;5.60;99.90;;;;;;5027656;28;20064;-73
2022/01/24 13:53:56;;;;;;;8.57;5.03;;;5.50;99.90;;;;;;5025871;28;20029;-74
2022/01/24 13:56:26;;;;;;;13.48;4.63;;;5.60;99.90;;;;;;5027012;28;20045;-72
2022/01/24 13:59:01;;;;;;;8.00;5.00;;;5.60;99.90;;;;;;5031418;28;20045;-75
2022/01/24 14:01:27;;;;;;;8.70;4.85;;;5.60;99.90;;;;;;5021040;28;20696;-74
2022/01/24 14:03:57;;;;;;;10.20;5.95;;;5.70;99.90;;;;;;5029945;28;20057;-74
2022/01/24 14:06:23;;;;;;;10.40;4.90;;;5.70;99.90;;;;;;5028046;28;20037;-75
2022/01/24 14:09:11;;;;;;;11.52;5.05;;;5.70;99.90;;;;;;5009683;28;20025;-72
2022/01/24 14:11:45;;;;;;;9.52;4.57;;;5.70;99.90;;;;;;5029144;28;20061;-73
2022/01/24 14:14:15;;;;;;;8.88;4.57;;;5.70;99.90;;;;;;5012887;28;20045;-73
2022/01/24 14:19:32;;;;;;;7.50;4.47;;;5.70;99.90;;;;;;5022778;28;20482;-71
2022/01/24 14:22:08;;;;;;;7.82;4.75;;;5.70;99.90;;;;;;5025612;28;20026;-75
2022/01/24 14:24:49;;;;;;;8.35;4.32;;;5.70;99.90;;;;;;5030152;28;20025;-74
2022/01/24 14:27:54;;;;;;;7.72;4.22;;;5.60;99.90;;;;;;5029251;28;20021;-74
2022/01/24 14:30:26;;;;;;;9.15;4.63;;;5.70;99.90;;;;;;5030449;28;20041;-74
2022/01/24 14:33:04;;;;;;;8.80;4.28;;;5.70;99.90;;;;;;5021229;28;20032;-74
2022/01/24 14:35:37;;;;;;;8.23;4.28;;;5.70;99.90;;;;;;5009993;28;20025;-76
2022/01/24 14:38:05;;;;;;;10.55;4.57;;;5.70;99.90;;;;;;5026053;28;20044;-74
2022/01/24 14:40:50;;;;;;;7.85;4.65;;;5.70;99.90;;;;;;5019136;28;20042;-73
2022/01/24 14:46:15;;;;;;;6.97;3.92;;;5.70;99.90;;;;;;5031640;28;21644;-75